sensor_id;sensor_type;location;lat;lon;timestamp;pressure;altitude;pressure_sealevel;temperature;humidity
64200;BME280;50516;52.272;5.136;2023-02-16T00:00:47;102352.97;;;7.36;77.99
64200;BME280;50516;52.272;5.136;2023-02-16T00:03:15;102334.06;;;7.28;78.53
64200;BME280;50516;52.272;5.136;2023-02-16T00:05:41;102351.75;;;7.32;78.08
64200;BME280;50516;52.272;5.136;2023-02-16T00:08:06;102343.94;;;7.36;78.29
64200;BME280;50516;52.272;5.136;2023-02-16T00:10:35;102339.53;;;7.35;78.21
64200;BME280;50516;52.272;5.136;2023-02-16T00:13:02;102347.50;;;7.36;78.29
64200;BME280;50516;52.272;5.136;2023-02-16T00:15:57;102338.06;;;7.32;78.56
64200;BME280;50516;52.272;5.136;2023-02-16T00:18:22;102339.34;;;7.29;78.21
64200;BME280;50516;52.272;5.136;2023-02-16T00:20:48;102340.84;;;7.25;78.47
64200;BME280;50516;52.272;5.136;2023-02-16T00:23:13;102337.69;;;7.28;78.74
64200;BME280;50516;52.272;5.136;2023-02-16T00:25:39;102330.72;;;7.26;79.01
64200;BME280;50516;52.272;5.136;2023-02-16T00:28:09;102327.41;;;7.17;79.00
64200;BME280;50516;52.272;5.136;2023-02-16T00:30:37;102326.31;;;7.18;79.27
64200;BME280;50516;52.272;5.136;2023-02-16T00:33:15;102336.81;;;7.28;79.01
64200;BME280;50516;52.272;5.136;2023-02-16T00:35:41;102329.28;;;7.17;79.35
64200;BME280;50516;52.272;5.136;2023-02-16T00:38:06;102331.19;;;7.09;79.63
64200;BME280;50516;52.272;5.136;2023-02-16T00:40:32;102337.47;;;7.17;79.22
64200;BME280;50516;52.272;5.136;2023-02-16T00:42:58;102330.75;;;7.19;79.18
64200;BME280;50516;52.272;5.136;2023-02-16T00:45:24;102330.97;;;7.18;79.27
64200;BME280;50516;52.272;5.136;2023-02-16T00:47:51;102317.91;;;7.20;79.37
64200;BME280;50516;52.272;5.136;2023-02-16T00:50:29;102331.56;;;7.20;78.95
64200;BME280;50516;52.272;5.136;2023-02-16T00:52:55;102327.19;;;7.19;79.24
64200;BME280;50516;52.272;5.136;2023-02-16T00:55:27;102319.19;;;7.10;79.88
64200;BME280;50516;52.272;5.136;2023-02-16T00:58:04;102323.63;;;7.05;80.00
64200;BME280;50516;52.272;5.136;2023-02-16T01:00:34;102329.06;;;7.11;79.63
64200;BME280;50516;52.272;5.136;2023-02-16T01:03:25;102318.75;;;7.13;79.77
64200;BME280;50516;52.272;5.136;2023-02-16T01:05:51;102322.16;;;7.09;79.93
64200;BME280;50516;52.272;5.136;2023-02-16T01:08:37;102321.91;;;7.10;79.87
64200;BME280;50516;52.272;5.136;2023-02-16T01:11:21;102312.69;;;7.11;79.60
64200;BME280;50516;52.272;5.136;2023-02-16T01:13:49;102307.22;;;7.11;79.97
64200;BME280;50516;52.272;5.136;2023-02-16T01:16:21;102296.72;;;7.08;79.81
64200;BME280;50516;52.272;5.136;2023-02-16T01:18:48;102296.31;;;7.05;79.95
64200;BME280;50516;52.272;5.136;2023-02-16T01:21:14;102297.16;;;6.99;80.25
64200;BME280;50516;52.272;5.136;2023-02-16T01:23:39;102298.84;;;7.00;80.40
64200;BME280;50516;52.272;5.136;2023-02-16T01:26:06;102305.34;;;7.05;80.42
64200;BME280;50516;52.272;5.136;2023-02-16T01:28:36;102303.25;;;7.01;80.19
64200;BME280;50516;52.272;5.136;2023-02-16T01:31:02;102305.75;;;7.02;80.35
64200;BME280;50516;52.272;5.136;2023-02-16T01:33:27;102306.19;;;7.06;80.29
64200;BME280;50516;52.272;5.136;2023-02-16T01:35:55;102304.69;;;7.10;80.05
64200;BME280;50516;52.272;5.136;2023-02-16T01:38:24;102303.47;;;7.06;80.77
64200;BME280;50516;52.272;5.136;2023-02-16T01:43:45;102300.94;;;7.11;80.08
64200;BME280;50516;52.272;5.136;2023-02-16T01:46:24;102297.78;;;7.07;80.16
64200;BME280;50516;52.272;5.136;2023-02-16T01:48:52;102303.69;;;7.04;80.47
64200;BME280;50516;52.272;5.136;2023-02-16T01:51:25;102296.28;;;7.11;80.34
64200;BME280;50516;52.272;5.136;2023-02-16T01:53:59;102294.63;;;7.17;80.50
64200;BME280;50516;52.272;5.136;2023-02-16T01:56:32;102291.88;;;7.24;80.23
64200;BME280;50516;52.272;5.136;2023-02-16T01:59:11;102287.28;;;7.11;80.91
64200;BME280;50516;52.272;5.136;2023-02-16T02:04:42;102286.16;;;7.32;80.43
64200;BME280;50516;52.272;5.136;2023-02-16T02:07:32;102285.53;;;7.30;80.61
64200;BME280;50516;52.272;5.136;2023-02-16T02:10:20;102281.94;;;7.29;80.49
64200;BME280;50516;52.272;5.136;2023-02-16T02:12:54;102272.28;;;7.34;81.00
64200;BME280;50516;52.272;5.136;2023-02-16T02:15:23;102272.94;;;7.29;80.68
64200;BME280;50516;52.272;5.136;2023-02-16T02:17:49;102272.28;;;7.34;81.18
64200;BME280;50516;52.272;5.136;2023-02-16T02:20:21;102278.41;;;7.29;81.13
64200;BME280;50516;52.272;5.136;2023-02-16T02:23:35;102258.00;;;7.31;80.87
64200;BME280;50516;52.272;5.136;2023-02-16T02:43:12;102255.78;;;7.54;80.23
64200;BME280;50516;52.272;5.136;2023-02-16T02:45:46;102249.09;;;7.49;80.52
64200;BME280;50516;52.272;5.136;2023-02-16T02:48:12;102246.78;;;7.53;80.56
64200;BME280;50516;52.272;5.136;2023-02-16T02:53:39;102240.09;;;7.42;80.89
64200;BME280;50516;52.272;5.136;2023-02-16T02:56:07;102228.09;;;7.43;80.83
64200;BME280;50516;52.272;5.136;2023-02-16T02:58:56;102229.19;;;7.36;81.38
64200;BME280;50516;52.272;5.136;2023-02-16T03:01:49;102223.28;;;7.39;81.06
64200;BME280;50516;52.272;5.136;2023-02-16T03:04:19;102230.63;;;7.45;80.67
64200;BME280;50516;52.272;5.136;2023-02-16T03:06:49;102230.59;;;7.52;80.46
64200;BME280;50516;52.272;5.136;2023-02-16T03:09:17;102222.16;;;7.53;80.62
64200;BME280;50516;52.272;5.136;2023-02-16T03:11:44;102220.47;;;7.52;80.54
64200;BME280;50516;52.272;5.136;2023-02-16T03:14:35;102224.88;;;7.60;79.97
64200;BME280;50516;52.272;5.136;2023-02-16T03:17:12;102226.38;;;7.49;80.09
64200;BME280;50516;52.272;5.136;2023-02-16T03:19:58;102231.84;;;7.49;80.70
64200;BME280;50516;52.272;5.136;2023-02-16T03:22:44;102229.72;;;7.58;80.15
64200;BME280;50516;52.272;5.136;2023-02-16T03:25:31;102227.59;;;7.60;80.32
64200;BME280;50516;52.272;5.136;2023-02-16T03:28:19;102221.13;;;7.54;80.21
64200;BME280;50516;52.272;5.136;2023-02-16T03:31:07;102222.97;;;7.60;80.32
64200;BME280;50516;52.272;5.136;2023-02-16T03:33:35;102223.00;;;7.54;80.09
64200;BME280;50516;52.272;5.136;2023-02-16T03:36:01;102216.50;;;7.55;80.14
64200;BME280;50516;52.272;5.136;2023-02-16T03:38:27;102223.44;;;7.50;80.27
64200;BME280;50516;52.272;5.136;2023-02-16T03:40:53;102233.06;;;7.60;80.16
64200;BME280;50516;52.272;5.136;2023-02-16T03:43:23;102235.75;;;7.66;79.39
64200;BME280;50516;52.272;5.136;2023-02-16T03:45:49;102237.19;;;7.76;79.13
64200;BME280;50516;52.272;5.136;2023-02-16T03:48:15;102222.91;;;7.74;79.08
64200;BME280;50516;52.272;5.136;2023-02-16T03:50:40;102234.88;;;7.73;79.11
64200;BME280;50516;52.272;5.136;2023-02-16T03:53:06;102223.38;;;7.64;79.30
64200;BME280;50516;52.272;5.136;2023-02-16T03:55:36;102223.34;;;7.71;79.54
64200;BME280;50516;52.272;5.136;2023-02-16T03:58:04;102227.94;;;7.70;79.12
64200;BME280;50516;52.272;5.136;2023-02-16T04:00:29;102232.66;;;7.56;79.57
64200;BME280;50516;52.272;5.136;2023-02-16T04:02:55;102231.38;;;7.59;79.74
64200;BME280;50516;52.272;5.136;2023-02-16T04:05:21;102232.06;;;7.54;79.60
64200;BME280;50516;52.272;5.136;2023-02-16T04:07:46;102229.28;;;7.61;79.64
64200;BME280;50516;52.272;5.136;2023-02-16T04:10:12;102226.72;;;7.66;79.16
64200;BME280;50516;52.272;5.136;2023-02-16T04:12:37;102214.50;;;7.68;79.29
64200;BME280;50516;52.272;5.136;2023-02-16T04:15:05;102230.25;;;7.73;79.07
64200;BME280;50516;52.272;5.136;2023-02-16T04:17:30;102224.53;;;7.81;78.90
64200;BME280;50516;52.272;5.136;2023-02-16T04:19:56;102219.88;;;7.89;78.46
64200;BME280;50516;52.272;5.136;2023-02-16T04:22:21;102226.66;;;7.79;78.45
64200;BME280;50516;52.272;5.136;2023-02-16T04:24:47;102219.50;;;7.78;78.80
64200;BME280;50516;52.272;5.136;2023-02-16T04:27:12;102219.47;;;7.85;78.70
64200;BME280;50516;52.272;5.136;2023-02-16T04:29:37;102226.81;;;7.84;78.02
64200;BME280;50516;52.272;5.136;2023-02-16T04:32:03;102228.78;;;7.77;78.46
64200;BME280;50516;52.272;5.136;2023-02-16T04:34:29;102230.22;;;7.80;78.35
64200;BME280;50516;52.272;5.136;2023-02-16T04:36:54;102220.34;;;7.79;78.68
64200;BME280;50516;52.272;5.136;2023-02-16T04:39:19;102226.59;;;7.86;78.20
64200;BME280;50516;52.272;5.136;2023-02-16T04:41:46;102215.22;;;7.89;78.28
64200;BME280;50516;52.272;5.136;2023-02-16T04:44:12;102228.84;;;7.96;77.99
64200;BME280;50516;52.272;5.136;2023-02-16T04:46:37;102219.50;;;7.78;78.45
64200;BME280;50516;52.272;5.136;2023-02-16T04:49:03;102216.75;;;7.78;78.55
64200;BME280;50516;52.272;5.136;2023-02-16T04:51:28;102220.81;;;7.69;78.95
64200;BME280;50516;52.272;5.136;2023-02-16T04:53:53;102222.03;;;7.73;79.05
64200;BME280;50516;52.272;5.136;2023-02-16T04:56:19;102222.47;;;7.70;79.20
64200;BME280;50516;52.272;5.136;2023-02-16T04:58:44;102215.13;;;7.71;78.96
64200;BME280;50516;52.272;5.136;2023-02-16T05:01:21;102221.66;;;7.70;79.40
64200;BME280;50516;52.272;5.136;2023-02-16T05:03:47;102211.13;;;7.73;79.11
64200;BME280;50516;52.272;5.136;2023-02-16T05:06:12;102206.72;;;7.72;79.07
64200;BME280;50516;52.272;5.136;2023-02-16T05:08:38;102213.28;;;7.64;79.60
64200;BME280;50516;52.272;5.136;2023-02-16T05:11:03;102205.69;;;7.66;79.40
64200;BME280;50516;52.272;5.136;2023-02-16T05:13:47;102205.88;;;7.72;79.29
64200;BME280;50516;52.272;5.136;2023-02-16T05:16:31;102190.13;;;7.67;79.06
64200;BME280;50516;52.272;5.136;2023-02-16T05:18:56;102196.00;;;7.71;79.58
64200;BME280;50516;52.272;5.136;2023-02-16T05:21:22;102184.84;;;7.72;79.15
64200;BME280;50516;52.272;5.136;2023-02-16T05:24:14;102178.03;;;7.81;79.07
64200;BME280;50516;52.272;5.136;2023-02-16T05:26:40;102184.41;;;7.75;78.81
64200;BME280;50516;52.272;5.136;2023-02-16T05:29:05;102189.03;;;7.75;79.21
64200;BME280;50516;52.272;5.136;2023-02-16T05:31:31;102181.31;;;7.65;79.56
64200;BME280;50516;52.272;5.136;2023-02-16T05:33:56;102186.50;;;7.73;79.80
64200;BME280;50516;52.272;5.136;2023-02-16T05:36:22;102188.81;;;7.76;79.22
64200;BME280;50516;52.272;5.136;2023-02-16T05:38:48;102182.28;;;7.77;79.84
64200;BME280;50516;52.272;5.136;2023-02-16T05:41:14;102192.41;;;7.70;79.82
64200;BME280;50516;52.272;5.136;2023-02-16T05:43:56;102190.44;;;7.84;79.67
64200;BME280;50516;52.272;5.136;2023-02-16T05:46:23;102190.50;;;7.77;79.52
64200;BME280;50516;52.272;5.136;2023-02-16T05:48:49;102195.53;;;7.80;79.90
64200;BME280;50516;52.272;5.136;2023-02-16T05:51:15;102203.06;;;7.85;79.77
64200;BME280;50516;52.272;5.136;2023-02-16T05:53:41;102198.00;;;7.89;79.62
64200;BME280;50516;52.272;5.136;2023-02-16T05:56:07;102201.38;;;7.84;79.72
64200;BME280;50516;52.272;5.136;2023-02-16T05:58:32;102206.09;;;7.70;80.31
64200;BME280;50516;52.272;5.136;2023-02-16T06:00:58;102206.28;;;7.75;80.37
64200;BME280;50516;52.272;5.136;2023-02-16T06:03:23;102210.69;;;7.76;80.12
64200;BME280;50516;52.272;5.136;2023-02-16T06:05:53;102203.50;;;7.82;80.28
64200;BME280;50516;52.272;5.136;2023-02-16T06:08:18;102197.16;;;7.88;79.97
64200;BME280;50516;52.272;5.136;2023-02-16T06:10:44;102196.06;;;7.64;80.42
64200;BME280;50516;52.272;5.136;2023-02-16T06:13:11;102187.16;;;7.75;81.01
64200;BME280;50516;52.272;5.136;2023-02-16T06:15:36;102193.88;;;7.73;80.82
64200;BME280;50516;52.272;5.136;2023-02-16T06:18:02;102192.63;;;7.75;80.73
64200;BME280;50516;52.272;5.136;2023-02-16T06:20:28;102191.09;;;7.79;80.67
64200;BME280;50516;52.272;5.136;2023-02-16T06:22:53;102197.63;;;7.78;80.59
64200;BME280;50516;52.272;5.136;2023-02-16T06:25:18;102191.53;;;7.76;80.61
64200;BME280;50516;52.272;5.136;2023-02-16T06:27:44;102198.47;;;7.79;80.88
64200;BME280;50516;52.272;5.136;2023-02-16T06:30:10;102196.97;;;7.83;80.96
64200;BME280;50516;52.272;5.136;2023-02-16T06:32:36;102196.13;;;7.82;81.61
64200;BME280;50516;52.272;5.136;2023-02-16T06:35:02;102198.31;;;7.99;81.47
64200;BME280;50516;52.272;5.136;2023-02-16T06:37:28;102207.06;;;7.82;81.83
64200;BME280;50516;52.272;5.136;2023-02-16T06:39:53;102209.97;;;7.88;81.99
64200;BME280;50516;52.272;5.136;2023-02-16T06:42:19;102214.28;;;8.02;81.86
64200;BME280;50516;52.272;5.136;2023-02-16T06:44:44;102217.63;;;8.11;81.08
64200;BME280;50516;52.272;5.136;2023-02-16T06:47:09;102211.13;;;8.05;81.55
64200;BME280;50516;52.272;5.136;2023-02-16T06:49:35;102217.25;;;8.00;81.60
64200;BME280;50516;52.272;5.136;2023-02-16T06:52:00;102223.16;;;7.97;81.70
64200;BME280;50516;52.272;5.136;2023-02-16T06:54:25;102221.06;;;7.99;81.60
64200;BME280;50516;52.272;5.136;2023-02-16T06:56:51;102218.88;;;8.08;81.58
64200;BME280;50516;52.272;5.136;2023-02-16T06:59:16;102220.59;;;8.02;81.58
64200;BME280;50516;52.272;5.136;2023-02-16T07:01:41;102219.75;;;8.02;81.61
64200;BME280;50516;52.272;5.136;2023-02-16T07:04:07;102222.38;;;7.90;82.06
64200;BME280;50516;52.272;5.136;2023-02-16T07:06:32;102220.03;;;7.94;82.21
64200;BME280;50516;52.272;5.136;2023-02-16T07:08:58;102227.16;;;8.01;82.08
64200;BME280;50516;52.272;5.136;2023-02-16T07:11:23;102230.25;;;8.05;82.07
64200;BME280;50516;52.272;5.136;2023-02-16T07:13:49;102226.88;;;8.10;81.97
64200;BME280;50516;52.272;5.136;2023-02-16T07:16:14;102226.81;;;8.16;82.02
64200;BME280;50516;52.272;5.136;2023-02-16T07:18:40;102229.78;;;8.15;82.07
64200;BME280;50516;52.272;5.136;2023-02-16T07:21:06;102224.88;;;8.23;82.23
64200;BME280;50516;52.272;5.136;2023-02-16T07:23:32;102216.25;;;8.20;82.08
64200;BME280;50516;52.272;5.136;2023-02-16T07:25:58;102226.75;;;8.23;81.96
64200;BME280;50516;52.272;5.136;2023-02-16T07:28:24;102229.78;;;8.15;82.08
64200;BME280;50516;52.272;5.136;2023-02-16T07:30:49;102228.88;;;8.21;82.10
64200;BME280;50516;52.272;5.136;2023-02-16T07:33:16;102232.63;;;8.27;82.22
64200;BME280;50516;52.272;5.136;2023-02-16T07:35:42;102234.81;;;8.18;82.42
64200;BME280;50516;52.272;5.136;2023-02-16T07:38:08;102245.91;;;8.23;82.10
64200;BME280;50516;52.272;5.136;2023-02-16T07:40:34;102254.97;;;8.23;82.29
64200;BME280;50516;52.272;5.136;2023-02-16T07:43:01;102241.31;;;8.17;82.22
64200;BME280;50516;52.272;5.136;2023-02-16T07:45:27;102247.00;;;8.22;82.20
64200;BME280;50516;52.272;5.136;2023-02-16T07:47:52;102249.53;;;8.17;82.08
64200;BME280;50516;52.272;5.136;2023-02-16T07:50:18;102258.31;;;8.26;82.12
64200;BME280;50516;52.272;5.136;2023-02-16T07:52:44;102260.31;;;8.12;82.58
64200;BME280;50516;52.272;5.136;2023-02-16T07:55:09;102255.50;;;8.07;82.37
64200;BME280;50516;52.272;5.136;2023-02-16T07:57:37;102258.88;;;8.09;82.51
64200;BME280;50516;52.272;5.136;2023-02-16T08:00:03;102254.63;;;8.13;82.37
64200;BME280;50516;52.272;5.136;2023-02-16T08:02:29;102257.78;;;8.10;82.55
64200;BME280;50516;52.272;5.136;2023-02-16T08:04:54;102251.94;;;8.07;82.65
64200;BME280;50516;52.272;5.136;2023-02-16T08:07:20;102256.97;;;8.10;82.83
64200;BME280;50516;52.272;5.136;2023-02-16T08:09:46;102259.22;;;8.19;82.32
64200;BME280;50516;52.272;5.136;2023-02-16T08:12:12;102258.94;;;8.28;82.12
64200;BME280;50516;52.272;5.136;2023-02-16T08:14:38;102258.72;;;8.29;81.96
64200;BME280;50516;52.272;5.136;2023-02-16T08:17:05;102258.72;;;8.29;81.97
64200;BME280;50516;52.272;5.136;2023-02-16T08:19:31;102267.59;;;8.25;82.34
64200;BME280;50516;52.272;5.136;2023-02-16T08:21:58;102270.31;;;8.25;82.36
64200;BME280;50516;52.272;5.136;2023-02-16T08:24:24;102266.69;;;8.31;82.71
64200;BME280;50516;52.272;5.136;2023-02-16T08:26:50;102277.88;;;8.29;82.33
64200;BME280;50516;52.272;5.136;2023-02-16T08:29:18;102272.72;;;8.39;82.26
64200;BME280;50516;52.272;5.136;2023-02-16T08:31:45;102269.34;;;8.44;81.95
64200;BME280;50516;52.272;5.136;2023-02-16T08:34:12;102277.44;;;8.32;81.92
64200;BME280;50516;52.272;5.136;2023-02-16T08:36:39;102280.56;;;8.36;82.00
64200;BME280;50516;52.272;5.136;2023-02-16T08:39:16;102281.16;;;8.38;82.11
64200;BME280;50516;52.272;5.136;2023-02-16T08:41:44;102283.13;;;8.31;82.47
64200;BME280;50516;52.272;5.136;2023-02-16T08:44:10;102282.06;;;8.32;82.51
64200;BME280;50516;52.272;5.136;2023-02-16T08:46:37;102283.06;;;8.37;82.22
64200;BME280;50516;52.272;5.136;2023-02-16T08:49:04;102285.69;;;8.26;82.81
64200;BME280;50516;52.272;5.136;2023-02-16T08:51:32;102292.22;;;8.25;83.30
64200;BME280;50516;52.272;5.136;2023-02-16T08:54:00;102288.03;;;8.22;84.09
64200;BME280;50516;52.272;5.136;2023-02-16T08:56:27;102294.56;;;8.21;84.18
64200;BME280;50516;52.272;5.136;2023-02-16T08:58:58;102297.28;;;8.21;84.79
64200;BME280;50516;52.272;5.136;2023-02-16T09:01:23;102287.75;;;8.30;85.08
64200;BME280;50516;52.272;5.136;2023-02-16T09:03:49;102288.59;;;8.31;85.53
64200;BME280;50516;52.272;5.136;2023-02-16T09:06:17;102280.81;;;8.28;85.61
64200;BME280;50516;52.272;5.136;2023-02-16T09:08:44;102280.34;;;8.37;85.94
64200;BME280;50516;52.272;5.136;2023-02-16T09:11:12;102281.78;;;8.40;86.13
64200;BME280;50516;52.272;5.136;2023-02-16T09:13:39;102275.25;;;8.41;86.28
64200;BME280;50516;52.272;5.136;2023-02-16T09:16:07;102278.38;;;8.51;86.31
64200;BME280;50516;52.272;5.136;2023-02-16T09:18:34;102271.16;;;8.57;86.44
64200;BME280;50516;52.272;5.136;2023-02-16T09:21:05;102269.88;;;8.59;86.39
64200;BME280;50516;52.272;5.136;2023-02-16T09:23:35;102264.13;;;8.68;86.41
64200;BME280;50516;52.272;5.136;2023-02-16T09:26:01;102272.78;;;8.65;86.75
64200;BME280;50516;52.272;5.136;2023-02-16T09:28:27;102282.38;;;8.74;86.42
64200;BME280;50516;52.272;5.136;2023-02-16T09:30:53;102263.22;;;8.74;86.53
64200;BME280;50516;52.272;5.136;2023-02-16T09:33:19;102268.19;;;8.84;87.26
64200;BME280;50516;52.272;5.136;2023-02-16T09:35:45;102271.75;;;8.84;86.95
64200;BME280;50516;52.272;5.136;2023-02-16T09:38:11;102273.88;;;9.01;87.25
64200;BME280;50516;52.272;5.136;2023-02-16T09:40:36;102270.03;;;9.08;86.59
64200;BME280;50516;52.272;5.136;2023-02-16T09:43:57;102269.56;;;9.11;86.98
64200;BME280;50516;52.272;5.136;2023-02-16T09:46:17;102275.56;;;9.20;87.04
64200;BME280;50516;52.272;5.136;2023-02-16T09:48:46;102280.31;;;9.13;87.24
64200;BME280;50516;52.272;5.136;2023-02-16T09:51:32;102278.03;;;9.10;87.65
64200;BME280;50516;52.272;5.136;2023-02-16T09:54:06;102286.88;;;9.30;87.42
64200;BME280;50516;52.272;5.136;2023-02-16T09:56:45;102282.13;;;9.38;87.05
64200;BME280;50516;52.272;5.136;2023-02-16T10:02:15;102290.03;;;9.64;86.27
64200;BME280;50516;52.272;5.136;2023-02-16T10:05:00;102283.78;;;9.76;85.76
64200;BME280;50516;52.272;5.136;2023-02-16T10:10:18;102289.34;;;9.99;85.37
64200;BME280;50516;52.272;5.136;2023-02-16T10:12:49;102294.38;;;10.02;85.85
64200;BME280;50516;52.272;5.136;2023-02-16T10:15:23;102292.88;;;9.88;86.14
64200;BME280;50516;52.272;5.136;2023-02-16T10:17:58;102289.06;;;9.89;86.35
64200;BME280;50516;52.272;5.136;2023-02-16T10:20:37;102283.38;;;10.02;85.96
64200;BME280;50516;52.272;5.136;2023-02-16T10:23:13;102283.84;;;9.99;85.86
64200;BME280;50516;52.272;5.136;2023-02-16T10:26:56;102277.44;;;10.05;85.70
64200;BME280;50516;52.272;5.136;2023-02-16T10:29:09;102274.34;;;10.02;85.99
64200;BME280;50516;52.272;5.136;2023-02-16T10:39:34;102280.66;;;10.02;86.04
64200;BME280;50516;52.272;5.136;2023-02-16T10:47:40;102278.19;;;10.13;85.69
64200;BME280;50516;52.272;5.136;2023-02-16T10:50:35;102259.31;;;10.04;86.48
64200;BME280;50516;52.272;5.136;2023-02-16T10:53:05;102261.25;;;10.16;86.16
64200;BME280;50516;52.272;5.136;2023-02-16T10:55:33;102260.97;;;10.36;85.99
64200;BME280;50516;52.272;5.136;2023-02-16T10:58:01;102260.25;;;10.40;85.84
64200;BME280;50516;52.272;5.136;2023-02-16T11:00:37;102265.53;;;10.54;85.87
64200;BME280;50516;52.272;5.136;2023-02-16T11:03:11;102271.88;;;10.66;85.63
64200;BME280;50516;52.272;5.136;2023-02-16T11:05:38;102256.22;;;10.78;85.27
64200;BME280;50516;52.272;5.136;2023-02-16T11:08:06;102254.66;;;10.83;84.70
64200;BME280;50516;52.272;5.136;2023-02-16T11:10:47;102251.56;;;10.79;85.45
64200;BME280;50516;52.272;5.136;2023-02-16T11:13:28;102258.25;;;10.95;84.67
64200;BME280;50516;52.272;5.136;2023-02-16T11:16:02;102250.47;;;11.04;84.42
64200;BME280;50516;52.272;5.136;2023-02-16T11:18:41;102250.09;;;11.12;84.57
64200;BME280;50516;52.272;5.136;2023-02-16T11:21:09;102239.09;;;11.12;84.62
64200;BME280;50516;52.272;5.136;2023-02-16T11:23:39;102242.91;;;11.23;84.12
64200;BME280;50516;52.272;5.136;2023-02-16T11:26:25;102235.59;;;11.28;84.32
64200;BME280;50516;52.272;5.136;2023-02-16T11:28:52;102234.75;;;11.28;84.14
64200;BME280;50516;52.272;5.136;2023-02-16T11:31:36;102246.81;;;11.27;84.44
64200;BME280;50516;52.272;5.136;2023-02-16T11:34:04;102243.00;;;11.28;84.78
64200;BME280;50516;52.272;5.136;2023-02-16T11:36:37;102245.38;;;11.36;84.30
64200;BME280;50516;52.272;5.136;2023-02-16T11:39:13;102235.44;;;11.35;84.46
64200;BME280;50516;52.272;5.136;2023-02-16T11:41:48;102238.34;;;11.40;84.04
64200;BME280;50516;52.272;5.136;2023-02-16T11:46:49;102229.31;;;11.45;84.06
64200;BME280;50516;52.272;5.136;2023-02-16T11:49:30;102230.72;;;11.59;83.89
64200;BME280;50516;52.272;5.136;2023-02-16T11:51:56;102222.75;;;11.75;83.44
64200;BME280;50516;52.272;5.136;2023-02-16T11:54:21;102218.41;;;11.79;83.61
64200;BME280;50516;52.272;5.136;2023-02-16T11:57:04;102212.28;;;11.88;83.20
64200;BME280;50516;52.272;5.136;2023-02-16T11:59:35;102205.59;;;11.84;83.77
64200;BME280;50516;52.272;5.136;2023-02-16T12:07:55;102193.63;;;12.08;83.12
64200;BME280;50516;52.272;5.136;2023-02-16T12:10:14;102188.25;;;12.13;82.76
64200;BME280;50516;52.272;5.136;2023-02-16T12:17:43;102184.63;;;12.12;82.55
64200;BME280;50516;52.272;5.136;2023-02-16T12:20:19;102170.88;;;11.95;82.62
64200;BME280;50516;52.272;5.136;2023-02-16T12:22:47;102159.63;;;11.97;82.38
64200;BME280;50516;52.272;5.136;2023-02-16T12:25:39;102155.75;;;11.98;82.26
64200;BME280;50516;52.272;5.136;2023-02-16T12:28:15;102156.44;;;12.05;82.00
64200;BME280;50516;52.272;5.136;2023-02-16T12:33:40;102136.41;;;12.27;80.91
64200;BME280;50516;52.272;5.136;2023-02-16T12:36:23;102145.41;;;12.22;80.61
64200;BME280;50516;52.272;5.136;2023-02-16T12:44:49;102127.56;;;11.91;80.00
64200;BME280;50516;52.272;5.136;2023-02-16T12:47:35;102128.25;;;11.98;80.33
64200;BME280;50516;52.272;5.136;2023-02-16T12:50:03;102118.22;;;12.09;79.57
64200;BME280;50516;52.272;5.136;2023-02-16T12:52:37;102115.72;;;12.07;79.57
64200;BME280;50516;52.272;5.136;2023-02-16T12:55:38;102116.19;;;12.38;78.12
64200;BME280;50516;52.272;5.136;2023-02-16T13:05:48;102126.06;;;12.34;77.68
64200;BME280;50516;52.272;5.136;2023-02-16T13:08:28;102121.56;;;12.28;77.61
64200;BME280;50516;52.272;5.136;2023-02-16T13:13:42;102115.44;;;12.42;77.52
64200;BME280;50516;52.272;5.136;2023-02-16T13:16:13;102115.13;;;12.39;77.85
64200;BME280;50516;52.272;5.136;2023-02-16T13:18:42;102101.53;;;12.32;77.54
64200;BME280;50516;52.272;5.136;2023-02-16T13:24:31;102089.22;;;12.40;77.42
64200;BME280;50516;52.272;5.136;2023-02-16T13:27:36;102094.09;;;12.33;77.84
64200;BME280;50516;52.272;5.136;2023-02-16T13:36:24;102072.78;;;12.45;77.87
64200;BME280;50516;52.272;5.136;2023-02-16T13:39:12;102051.94;;;12.54;77.65
64200;BME280;50516;52.272;5.136;2023-02-16T13:44:43;102051.50;;;12.63;77.39
64200;BME280;50516;52.272;5.136;2023-02-16T13:47:15;102052.97;;;12.70;77.36
64200;BME280;50516;52.272;5.136;2023-02-16T13:49:44;102045.47;;;12.66;77.47
64200;BME280;50516;52.272;5.136;2023-02-16T13:52:40;102047.84;;;12.57;77.67
64200;BME280;50516;52.272;5.136;2023-02-16T14:00:40;102040.25;;;12.42;78.10
64200;BME280;50516;52.272;5.136;2023-02-16T14:03:33;102044.44;;;12.28;78.24
64200;BME280;50516;52.272;5.136;2023-02-16T14:27:51;102019.28;;;11.85;80.20
64200;BME280;50516;52.272;5.136;2023-02-16T14:30:18;102017.81;;;11.77;80.30
64200;BME280;50516;52.272;5.136;2023-02-16T14:32:49;102012.31;;;11.77;80.66
64200;BME280;50516;52.272;5.136;2023-02-16T14:35:21;102009.47;;;11.72;80.79
64200;BME280;50516;52.272;5.136;2023-02-16T14:43:22;102016.72;;;11.78;81.31
64200;BME280;50516;52.272;5.136;2023-02-16T14:45:57;102024.47;;;11.81;81.70
64200;BME280;50516;52.272;5.136;2023-02-16T14:56:50;102031.91;;;11.47;86.12
64200;BME280;50516;52.272;5.136;2023-02-16T15:01:59;102036.47;;;11.41;87.55
64200;BME280;50516;52.272;5.136;2023-02-16T15:04:29;102038.81;;;11.32;88.03
64200;BME280;50516;52.272;5.136;2023-02-16T15:06:56;102032.56;;;11.37;88.15
64200;BME280;50516;52.272;5.136;2023-02-16T15:09:29;102036.97;;;11.21;88.47
64200;BME280;50516;52.272;5.136;2023-02-16T15:12:02;102034.47;;;11.20;88.83
64200;BME280;50516;52.272;5.136;2023-02-16T15:14:58;102027.09;;;11.08;89.38
64200;BME280;50516;52.272;5.136;2023-02-16T15:17:32;102039.00;;;10.97;89.98
64200;BME280;50516;52.272;5.136;2023-02-16T15:20:18;102031.56;;;10.98;90.38
64200;BME280;50516;52.272;5.136;2023-02-16T15:22:54;102037.22;;;10.91;90.42
64200;BME280;50516;52.272;5.136;2023-02-16T15:28:02;102035.69;;;10.83;91.90
64200;BME280;50516;52.272;5.136;2023-02-16T15:30:32;102028.88;;;10.86;91.95
64200;BME280;50516;52.272;5.136;2023-02-16T15:35:58;102031.56;;;10.98;92.00